sensor_id;sensor_type;location;lat;lon;timestamp;P1;durP1;ratioP1;P2;durP2;ratioP2
13319;SDS011;59599;47.608;12.190;2022-10-30T05:01:40;9.50;;;3.60;;
13319;SDS011;59599;47.608;12.190;2022-10-30T05:04:06;9.30;;;3.90;;
13319;SDS011;59599;47.608;12.190;2022-10-30T05:06:32;11.77;;;3.70;;
13319;SDS011;59599;47.608;12.190;2022-10-30T05:08:58;11.40;;;4.10;;
13319;SDS011;59599;47.608;12.190;2022-10-30T05:11:23;14.63;;;5.03;;
13319;SDS011;59599;47.608;12.190;2022-10-30T05:13:49;12.33;;;3.60;;
13319;SDS011;59599;47.608;12.190;2022-10-30T05:16:15;8.40;;;3.80;;
13319;SDS011;59599;47.608;12.190;2022-10-30T05:18:41;12.13;;;3.80;;
13319;SDS011;59599;47.608;12.190;2022-10-30T05:21:06;19.60;;;3.80;;
13319;SDS011;59599;47.608;12.190;2022-10-30T05:23:32;7.97;;;3.93;;
13319;SDS011;59599;47.608;12.190;2022-10-30T05:26:00;8.90;;;3.47;;
13319;SDS011;59599;47.608;12.190;2022-10-30T05:28:26;11.73;;;4.20;;
13319;SDS011;59599;47.608;12.190;2022-10-30T05:30:52;10.20;;;3.50;;
13319;SDS011;59599;47.608;12.190;2022-10-30T05:33:18;7.87;;;3.90;;
13319;SDS011;59599;47.608;12.190;2022-10-30T05:35:44;10.43;;;4.53;;
13319;SDS011;59599;47.608;12.190;2022-10-30T05:38:09;11.57;;;4.73;;
13319;SDS011;59599;47.608;12.190;2022-10-30T05:40:36;14.17;;;4.23;;
13319;SDS011;59599;47.608;12.190;2022-10-30T05:43:01;13.30;;;3.93;;
13319;SDS011;59599;47.608;12.190;2022-10-30T05:45:27;12.60;;;3.90;;
13319;SDS011;59599;47.608;12.190;2022-10-30T05:47:54;10.37;;;3.80;;
13319;SDS011;59599;47.608;12.190;2022-10-30T05:50:19;12.83;;;4.53;;
13319;SDS011;59599;47.608;12.190;2022-10-30T05:52:45;12.77;;;3.83;;
13319;SDS011;59599;47.608;12.190;2022-10-30T05:55:10;9.50;;;4.10;;
13319;SDS011;59599;47.608;12.190;2022-10-30T05:57:36;13.03;;;4.20;;
13319;SDS011;59599;47.608;12.190;2022-10-30T06:00:02;13.23;;;3.93;;
13319;SDS011;59599;47.608;12.190;2022-10-30T06:02:28;17.60;;;4.27;;
13319;SDS011;59599;47.608;12.190;2022-10-30T06:04:54;11.70;;;4.03;;
13319;SDS011;59599;47.608;12.190;2022-10-30T06:07:19;16.27;;;4.40;;
13319;SDS011;59599;47.608;12.190;2022-10-30T06:09:45;9.27;;;3.93;;
13319;SDS011;59599;47.608;12.190;2022-10-30T06:12:10;14.87;;;4.40;;
13319;SDS011;59599;47.608;12.190;2022-10-30T06:14:36;15.47;;;4.30;;
13319;SDS011;59599;47.608;12.190;2022-10-30T06:17:01;10.93;;;3.83;;
13319;SDS011;59599;47.608;12.190;2022-10-30T06:19:27;9.53;;;4.33;;
13319;SDS011;59599;47.608;12.190;2022-10-30T06:21:52;14.53;;;4.57;;
13319;SDS011;59599;47.608;12.190;2022-10-30T06:24:19;10.97;;;4.47;;
13319;SDS011;59599;47.608;12.190;2022-10-30T06:26:44;13.93;;;4.07;;
13319;SDS011;59599;47.608;12.190;2022-10-30T06:29:10;11.73;;;3.83;;
13319;SDS011;59599;47.608;12.190;2022-10-30T06:31:35;11.20;;;4.10;;
13319;SDS011;59599;47.608;12.190;2022-10-30T06:34:01;14.13;;;4.43;;
13319;SDS011;59599;47.608;12.190;2022-10-30T06:36:27;14.37;;;5.00;;
13319;SDS011;59599;47.608;12.190;2022-10-30T06:38:52;15.10;;;4.90;;
13319;SDS011;59599;47.608;12.190;2022-10-30T06:41:18;14.90;;;4.43;;
13319;SDS011;59599;47.608;12.190;2022-10-30T06:43:43;13.23;;;4.73;;
13319;SDS011;59599;47.608;12.190;2022-10-30T06:46:09;12.37;;;4.03;;
13319;SDS011;59599;47.608;12.190;2022-10-30T06:48:34;13.70;;;4.50;;
13319;SDS011;59599;47.608;12.190;2022-10-30T06:51:00;13.00;;;4.43;;
13319;SDS011;59599;47.608;12.190;2022-10-30T06:53:27;12.27;;;4.47;;
13319;SDS011;59599;47.608;12.190;2022-10-30T06:55:56;11.77;;;4.17;;
13319;SDS011;59599;47.608;12.190;2022-10-30T06:58:24;12.93;;;4.83;;
13319;SDS011;59599;47.608;12.190;2022-10-30T07:00:50;11.97;;;4.30;;
13319;SDS011;59599;47.608;12.190;2022-10-30T07:03:15;9.73;;;4.30;;
13319;SDS011;59599;47.608;12.190;2022-10-30T07:05:41;16.13;;;4.53;;
13319;SDS011;59599;47.608;12.190;2022-10-30T07:08:07;12.83;;;4.47;;
13319;SDS011;59599;47.608;12.190;2022-10-30T07:10:32;10.40;;;4.47;;
13319;SDS011;59599;47.608;12.190;2022-10-30T07:12:58;9.97;;;3.73;;
13319;SDS011;59599;47.608;12.190;2022-10-30T07:15:24;11.73;;;4.00;;
13319;SDS011;59599;47.608;12.190;2022-10-30T07:17:54;12.73;;;4.67;;
13319;SDS011;59599;47.608;12.190;2022-10-30T07:20:21;17.03;;;4.37;;
13319;SDS011;59599;47.608;12.190;2022-10-30T07:22:47;12.80;;;4.97;;
13319;SDS011;59599;47.608;12.190;2022-10-30T07:25:13;16.37;;;4.43;;
13319;SDS011;59599;47.608;12.190;2022-10-30T07:27:45;9.33;;;4.33;;
13319;SDS011;59599;47.608;12.190;2022-10-30T07:30:13;15.70;;;4.73;;
13319;SDS011;59599;47.608;12.190;2022-10-30T07:32:43;13.00;;;4.33;;
13319;SDS011;59599;47.608;12.190;2022-10-30T07:35:10;9.57;;;4.50;;
13319;SDS011;59599;47.608;12.190;2022-10-30T07:37:37;15.30;;;5.33;;
13319;SDS011;59599;47.608;12.190;2022-10-30T07:40:03;9.90;;;4.47;;
13319;SDS011;59599;47.608;12.190;2022-10-30T07:42:29;8.17;;;4.20;;
13319;SDS011;59599;47.608;12.190;2022-10-30T07:44:56;11.07;;;5.63;;
13319;SDS011;59599;47.608;12.190;2022-10-30T07:47:21;9.43;;;4.30;;
13319;SDS011;59599;47.608;12.190;2022-10-30T07:49:47;12.43;;;4.50;;
13319;SDS011;59599;47.608;12.190;2022-10-30T07:52:12;8.97;;;3.87;;
13319;SDS011;59599;47.608;12.190;2022-10-30T07:54:38;10.77;;;3.57;;
13319;SDS011;59599;47.608;12.190;2022-10-30T07:57:03;10.67;;;4.23;;
13319;SDS011;59599;47.608;12.190;2022-10-30T07:59:29;18.60;;;4.63;;
13319;SDS011;59599;47.608;12.190;2022-10-30T08:01:55;20.53;;;4.30;;
13319;SDS011;59599;47.608;12.190;2022-10-30T08:04:20;12.03;;;4.33;;
13319;SDS011;59599;47.608;12.190;2022-10-30T08:09:56;10.80;;;4.40;;
13319;SDS011;59599;47.608;12.190;2022-10-30T08:12:22;10.27;;;4.63;;
13319;SDS011;59599;47.608;12.190;2022-10-30T08:14:47;13.60;;;4.60;;
13319;SDS011;59599;47.608;12.190;2022-10-30T08:17:13;11.37;;;4.20;;
13319;SDS011;59599;47.608;12.190;2022-10-30T08:19:39;9.80;;;3.63;;
13319;SDS011;59599;47.608;12.190;2022-10-30T08:22:04;14.80;;;4.37;;
13319;SDS011;59599;47.608;12.190;2022-10-30T08:24:30;11.53;;;5.03;;
13319;SDS011;59599;47.608;12.190;2022-10-30T08:26:56;12.97;;;4.10;;
13319;SDS011;59599;47.608;12.190;2022-10-30T08:29:21;15.23;;;4.70;;
13319;SDS011;59599;47.608;12.190;2022-10-30T08:31:47;13.23;;;3.90;;
13319;SDS011;59599;47.608;12.190;2022-10-30T08:34:13;11.97;;;4.20;;
13319;SDS011;59599;47.608;12.190;2022-10-30T08:36:39;16.73;;;7.37;;
13319;SDS011;59599;47.608;12.190;2022-10-30T08:39:04;15.80;;;6.63;;
13319;SDS011;59599;47.608;12.190;2022-10-30T08:41:30;13.27;;;3.90;;
13319;SDS011;59599;47.608;12.190;2022-10-30T08:43:56;10.23;;;3.97;;
13319;SDS011;59599;47.608;12.190;2022-10-30T08:46:21;10.00;;;3.40;;
13319;SDS011;59599;47.608;12.190;2022-10-30T08:48:47;17.87;;;4.57;;
13319;SDS011;59599;47.608;12.190;2022-10-30T08:51:12;13.60;;;3.63;;
13319;SDS011;59599;47.608;12.190;2022-10-30T08:53:38;15.07;;;3.70;;
13319;SDS011;59599;47.608;12.190;2022-10-30T08:56:04;10.93;;;3.90;;
13319;SDS011;59599;47.608;12.190;2022-10-30T08:58:30;9.03;;;3.60;;
13319;SDS011;59599;47.608;12.190;2022-10-30T09:00:55;9.43;;;3.80;;
13319;SDS011;59599;47.608;12.190;2022-10-30T09:03:21;14.13;;;3.80;;
13319;SDS011;59599;47.608;12.190;2022-10-30T09:05:47;10.13;;;3.40;;
13319;SDS011;59599;47.608;12.190;2022-10-30T09:08:13;10.53;;;3.77;;
13319;SDS011;59599;47.608;12.190;2022-10-30T09:10:38;11.23;;;4.10;;
13319;SDS011;59599;47.608;12.190;2022-10-30T09:13:04;10.27;;;3.80;;
13319;SDS011;59599;47.608;12.190;2022-10-30T09:15:29;11.07;;;3.95;;
13319;SDS011;59599;47.608;12.190;2022-10-30T09:17:55;14.65;;;4.30;;
13319;SDS011;59599;47.608;12.190;2022-10-30T09:20:26;10.52;;;3.05;;
13319;SDS011;59599;47.608;12.190;2022-10-30T09:22:52;12.63;;;3.72;;
13319;SDS011;59599;47.608;12.190;2022-10-30T09:25:17;11.90;;;3.92;;
13319;SDS011;59599;47.608;12.190;2022-10-30T09:27:43;9.38;;;3.83;;
13319;SDS011;59599;47.608;12.190;2022-10-30T09:30:09;7.50;;;3.35;;
13319;SDS011;59599;47.608;12.190;2022-10-30T09:32:35;11.18;;;3.67;;
13319;SDS011;59599;47.608;12.190;2022-10-30T09:35:01;12.73;;;3.65;;
13319;SDS011;59599;47.608;12.190;2022-10-30T09:37:26;12.10;;;3.50;;
13319;SDS011;59599;47.608;12.190;2022-10-30T09:39:52;9.63;;;3.22;;
13319;SDS011;59599;47.608;12.190;2022-10-30T09:42:30;11.25;;;2.90;;
13319;SDS011;59599;47.608;12.190;2022-10-30T10:01:46;9.07;;;3.65;;
13319;SDS011;59599;47.608;12.190;2022-10-30T10:04:18;11.00;;;3.80;;
13319;SDS011;59599;47.608;12.190;2022-10-30T10:07:01;10.50;;;3.33;;
13319;SDS011;59599;47.608;12.190;2022-10-30T10:09:34;7.35;;;2.80;;
13319;SDS011;59599;47.608;12.190;2022-10-30T10:12:03;15.80;;;3.97;;
13319;SDS011;59599;47.608;12.190;2022-10-30T10:14:34;5.80;;;2.90;;
13319;SDS011;59599;47.608;12.190;2022-10-30T10:17:04;13.07;;;3.45;;
13319;SDS011;59599;47.608;12.190;2022-10-30T10:19:56;11.18;;;3.30;;
13319;SDS011;59599;47.608;12.190;2022-10-30T10:24:54;16.45;;;3.75;;
13319;SDS011;59599;47.608;12.190;2022-10-30T10:27:37;11.35;;;3.25;;
13319;SDS011;59599;47.608;12.190;2022-10-30T10:30:16;8.48;;;3.42;;
13319;SDS011;59599;47.608;12.190;2022-10-30T10:38:03;8.90;;;3.10;;
13319;SDS011;59599;47.608;12.190;2022-10-30T10:51:31;24.42;;;3.58;;
13319;SDS011;59599;47.608;12.190;2022-10-30T10:53:59;8.95;;;3.17;;
13319;SDS011;59599;47.608;12.190;2022-10-30T10:56:48;12.55;;;3.58;;
13319;SDS011;59599;47.608;12.190;2022-10-30T10:59:16;9.93;;;3.17;;
13319;SDS011;59599;47.608;12.190;2022-10-30T11:04:37;8.32;;;2.97;;
13319;SDS011;59599;47.608;12.190;2022-10-30T11:07:24;10.45;;;3.15;;
13319;SDS011;59599;47.608;12.190;2022-10-30T11:09:54;8.13;;;2.92;;
13319;SDS011;59599;47.608;12.190;2022-10-30T11:12:25;8.18;;;3.03;;
13319;SDS011;59599;47.608;12.190;2022-10-30T11:14:53;9.32;;;3.25;;
13319;SDS011;59599;47.608;12.190;2022-10-30T11:17:23;10.18;;;3.10;;
13319;SDS011;59599;47.608;12.190;2022-10-30T11:19:53;10.57;;;3.40;;
13319;SDS011;59599;47.608;12.190;2022-10-30T11:24:55;6.50;;;2.92;;
13319;SDS011;59599;47.608;12.190;2022-10-30T11:27:55;17.90;;;3.97;;
13319;SDS011;59599;47.608;12.190;2022-10-30T11:30:23;12.30;;;2.97;;
13319;SDS011;59599;47.608;12.190;2022-10-30T11:32:52;13.10;;;3.20;;
13319;SDS011;59599;47.608;12.190;2022-10-30T11:35:22;8.07;;;2.70;;
13319;SDS011;59599;47.608;12.190;2022-10-30T11:37:49;10.93;;;3.08;;
13319;SDS011;59599;47.608;12.190;2022-10-30T11:40:20;13.73;;;2.95;;
13319;SDS011;59599;47.608;12.190;2022-10-30T11:42:55;7.93;;;2.63;;
13319;SDS011;59599;47.608;12.190;2022-10-30T11:45:27;10.55;;;3.22;;
13319;SDS011;59599;47.608;12.190;2022-10-30T11:48:01;10.52;;;3.25;;
13319;SDS011;59599;47.608;12.190;2022-10-30T11:50:35;12.00;;;3.60;;
13319;SDS011;59599;47.608;12.190;2022-10-30T11:53:08;12.88;;;3.60;;
13319;SDS011;59599;47.608;12.190;2022-10-30T11:55:38;8.52;;;2.75;;
13319;SDS011;59599;47.608;12.190;2022-10-30T11:58:16;8.52;;;3.30;;
13319;SDS011;59599;47.608;12.190;2022-10-30T12:00:48;11.13;;;3.13;;
13319;SDS011;59599;47.608;12.190;2022-10-30T12:03:40;10.40;;;2.97;;
13319;SDS011;59599;47.608;12.190;2022-10-30T12:08:57;14.60;;;3.20;;
13319;SDS011;59599;47.608;12.190;2022-10-30T12:11:37;10.25;;;3.30;;
13319;SDS011;59599;47.608;12.190;2022-10-30T12:14:12;12.90;;;2.58;;
13319;SDS011;59599;47.608;12.190;2022-10-30T12:16:44;11.90;;;3.58;;
13319;SDS011;59599;47.608;12.190;2022-10-30T12:19:18;9.05;;;3.25;;
13319;SDS011;59599;47.608;12.190;2022-10-30T12:21:47;16.23;;;2.75;;
13319;SDS011;59599;47.608;12.190;2022-10-30T12:24:23;11.38;;;3.13;;
13319;SDS011;59599;47.608;12.190;2022-10-30T12:26:51;8.07;;;3.00;;
13319;SDS011;59599;47.608;12.190;2022-10-30T12:29:20;11.43;;;3.50;;
13319;SDS011;59599;47.608;12.190;2022-10-30T12:32:22;7.63;;;3.10;;
13319;SDS011;59599;47.608;12.190;2022-10-30T12:34:44;13.45;;;3.58;;
13319;SDS011;59599;47.608;12.190;2022-10-30T12:37:25;9.05;;;2.72;;
13319;SDS011;59599;47.608;12.190;2022-10-30T12:39:57;17.55;;;3.17;;
13319;SDS011;59599;47.608;12.190;2022-10-30T12:42:27;8.23;;;3.47;;
13319;SDS011;59599;47.608;12.190;2022-10-30T12:50:02;9.45;;;2.78;;
13319;SDS011;59599;47.608;12.190;2022-10-30T12:52:42;12.73;;;3.47;;
13319;SDS011;59599;47.608;12.190;2022-10-30T12:55:26;13.23;;;3.40;;
13319;SDS011;59599;47.608;12.190;2022-10-30T13:00:35;8.73;;;3.05;;
13319;SDS011;59599;47.608;12.190;2022-10-30T13:05:48;11.45;;;3.15;;
13319;SDS011;59599;47.608;12.190;2022-10-30T13:08:29;10.45;;;3.00;;
13319;SDS011;59599;47.608;12.190;2022-10-30T13:11:20;8.88;;;2.95;;
13319;SDS011;59599;47.608;12.190;2022-10-30T13:14:16;11.68;;;2.97;;
13319;SDS011;59599;47.608;12.190;2022-10-30T13:16:50;9.18;;;3.10;;
13319;SDS011;59599;47.608;12.190;2022-10-30T13:19:16;11.75;;;3.13;;
13319;SDS011;59599;47.608;12.190;2022-10-30T13:21:45;9.82;;;3.35;;
13319;SDS011;59599;47.608;12.190;2022-10-30T13:30:18;14.15;;;3.67;;
13319;SDS011;59599;47.608;12.190;2022-10-30T13:32:55;11.23;;;2.95;;
13319;SDS011;59599;47.608;12.190;2022-10-30T13:49:16;12.20;;;3.13;;
13319;SDS011;59599;47.608;12.190;2022-10-30T13:51:51;13.65;;;3.35;;
13319;SDS011;59599;47.608;12.190;2022-10-30T13:55:12;11.98;;;3.40;;
13319;SDS011;59599;47.608;12.190;2022-10-30T13:57:26;13.52;;;3.17;;
13319;SDS011;59599;47.608;12.190;2022-10-30T14:00:05;8.93;;;3.25;;
13319;SDS011;59599;47.608;12.190;2022-10-30T14:05:35;11.63;;;3.05;;
13319;SDS011;59599;47.608;12.190;2022-10-30T14:11:19;7.45;;;3.08;;
13319;SDS011;59599;47.608;12.190;2022-10-30T14:13:51;15.75;;;3.25;;
13319;SDS011;59599;47.608;12.190;2022-10-30T14:18:58;9.82;;;3.17;;
13319;SDS011;59599;47.608;12.190;2022-10-30T14:21:49;13.63;;;3.17;;
13319;SDS011;59599;47.608;12.190;2022-10-30T14:24:31;10.13;;;3.53;;
13319;SDS011;59599;47.608;12.190;2022-10-30T14:32:40;11.05;;;3.28;;
13319;SDS011;59599;47.608;12.190;2022-10-30T14:37:16;12.73;;;2.90;;
13319;SDS011;59599;47.608;12.190;2022-10-30T14:43:00;11.73;;;3.40;;
13319;SDS011;59599;47.608;12.190;2022-10-30T14:48:48;9.98;;;2.97;;
13319;SDS011;59599;47.608;12.190;2022-10-30T14:51:36;9.90;;;2.92;;
13319;SDS011;59599;47.608;12.190;2022-10-30T14:56:47;9.98;;;2.83;;
13319;SDS011;59599;47.608;12.190;2022-10-30T15:01:51;10.50;;;3.65;;
13319;SDS011;59599;47.608;12.190;2022-10-30T15:04:34;9.88;;;3.80;;
13319;SDS011;59599;47.608;12.190;2022-10-30T15:12:17;14.35;;;3.83;;
13319;SDS011;59599;47.608;12.190;2022-10-30T15:14:56;7.70;;;2.92;;
13319;SDS011;59599;47.608;12.190;2022-10-30T15:20:01;11.30;;;3.42;;
13319;SDS011;59599;47.608;12.190;2022-10-30T15:22:32;10.10;;;3.80;;
13319;SDS011;59599;47.608;12.190;2022-10-30T15:24:59;17.05;;;3.85;;
13319;SDS011;59599;47.608;12.190;2022-10-30T15:27:28;10.43;;;2.97;;
13319;SDS011;59599;47.608;12.190;2022-10-30T15:29:59;12.00;;;3.30;;
13319;SDS011;59599;47.608;12.190;2022-10-30T15:32:26;13.77;;;3.50;;
13319;SDS011;59599;47.608;12.190;2022-10-30T15:34:56;13.75;;;3.97;;
13319;SDS011;59599;47.608;12.190;2022-10-30T15:37:29;10.10;;;4.00;;
13319;SDS011;59599;47.608;12.190;2022-10-30T15:42:44;10.65;;;3.55;;
13319;SDS011;59599;47.608;12.190;2022-10-30T15:45:15;11.80;;;3.85;;
13319;SDS011;59599;47.608;12.190;2022-10-30T15:47:57;11.02;;;3.30;;
13319;SDS011;59599;47.608;12.190;2022-10-30T15:50:44;12.40;;;3.45;;
13319;SDS011;59599;47.608;12.190;2022-10-30T15:53:32;11.85;;;2.83;;
13319;SDS011;59599;47.608;12.190;2022-10-30T15:56:35;12.45;;;3.63;;
13319;SDS011;59599;47.608;12.190;2022-10-30T15:59:06;13.75;;;3.60;;
13319;SDS011;59599;47.608;12.190;2022-10-30T16:01:48;14.38;;;3.50;;
13319;SDS011;59599;47.608;12.190;2022-10-30T16:04:15;11.75;;;3.40;;
13319;SDS011;59599;47.608;12.190;2022-10-30T16:06:47;16.40;;;3.83;;
13319;SDS011;59599;47.608;12.190;2022-10-30T16:09:17;11.57;;;3.40;;
13319;SDS011;59599;47.608;12.190;2022-10-30T16:11:43;24.48;;;4.00;;
13319;SDS011;59599;47.608;12.190;2022-10-30T16:14:13;18.48;;;3.97;;
13319;SDS011;59599;47.608;12.190;2022-10-30T16:16:46;13.68;;;4.40;;
13319;SDS011;59599;47.608;12.190;2022-10-30T16:19:17;14.48;;;3.80;;
13319;SDS011;59599;47.608;12.190;2022-10-30T16:21:45;13.45;;;3.90;;
13319;SDS011;59599;47.608;12.190;2022-10-30T16:24:12;9.80;;;3.50;;
13319;SDS011;59599;47.608;12.190;2022-10-30T16:26:40;11.93;;;3.50;;
13319;SDS011;59599;47.608;12.190;2022-10-30T16:29:07;11.25;;;5.10;;
13319;SDS011;59599;47.608;12.190;2022-10-30T16:31:42;16.83;;;5.80;;
13319;SDS011;59599;47.608;12.190;2022-10-30T16:34:10;13.98;;;5.32;;
13319;SDS011;59599;47.608;12.190;2022-10-30T16:36:41;22.23;;;6.80;;
13319;SDS011;59599;47.608;12.190;2022-10-30T16:39:08;18.55;;;6.00;;
13319;SDS011;59599;47.608;12.190;2022-10-30T16:41:39;14.65;;;4.90;;
13319;SDS011;59599;47.608;12.190;2022-10-30T16:49:12;14.13;;;5.65;;
13319;SDS011;59599;47.608;12.190;2022-10-30T16:51:44;20.63;;;5.70;;
13319;SDS011;59599;47.608;12.190;2022-10-30T16:54:20;11.55;;;5.03;;
13319;SDS011;59599;47.608;12.190;2022-10-30T16:56:50;10.23;;;4.00;;
13319;SDS011;59599;47.608;12.190;2022-10-30T16:59:22;14.10;;;4.03;;
13319;SDS011;59599;47.608;12.190;2022-10-30T17:01:51;10.23;;;4.22;;
13319;SDS011;59599;47.608;12.190;2022-10-30T17:04:19;12.50;;;3.90;;
13319;SDS011;59599;47.608;12.190;2022-10-30T17:06:45;10.48;;;4.82;;
13319;SDS011;59599;47.608;12.190;2022-10-30T17:09:19;10.60;;;4.90;;
13319;SDS011;59599;47.608;12.190;2022-10-30T17:11:59;19.52;;;5.72;;
13319;SDS011;59599;47.608;12.190;2022-10-30T17:14:31;15.13;;;7.40;;
13319;SDS011;59599;47.608;12.190;2022-10-30T17:19:54;25.45;;;6.47;;
13319;SDS011;59599;47.608;12.190;2022-10-30T17:22:24;15.02;;;7.00;;
13319;SDS011;59599;47.608;12.190;2022-10-30T17:24:51;16.98;;;6.80;;
13319;SDS011;59599;47.608;12.190;2022-10-30T17:27:28;18.10;;;7.78;;
13319;SDS011;59599;47.608;12.190;2022-10-30T17:29:58;13.35;;;6.60;;
13319;SDS011;59599;47.608;12.190;2022-10-30T17:32:25;21.63;;;7.28;;
13319;SDS011;59599;47.608;12.190;2022-10-30T17:34:59;10.32;;;5.53;;
13319;SDS011;59599;47.608;12.190;2022-10-30T17:37:27;15.50;;;6.18;;
13319;SDS011;59599;47.608;12.190;2022-10-30T17:39:53;15.63;;;6.35;;
13319;SDS011;59599;47.608;12.190;2022-10-30T17:42:18;15.73;;;5.72;;
13319;SDS011;59599;47.608;12.190;2022-10-30T17:44:44;13.93;;;6.43;;
13319;SDS011;59599;47.608;12.190;2022-10-30T17:47:15;12.55;;;7.22;;
13319;SDS011;59599;47.608;12.190;2022-10-30T17:49:42;14.85;;;7.53;;
13319;SDS011;59599;47.608;12.190;2022-10-30T17:52:12;18.38;;;8.43;;
13319;SDS011;59599;47.608;12.190;2022-10-30T17:54:40;19.77;;;8.38;;
13319;SDS011;59599;47.608;12.190;2022-10-30T17:57:08;20.13;;;7.75;;
13319;SDS011;59599;47.608;12.190;2022-10-30T17:59:38;17.73;;;6.93;;
13319;SDS011;59599;47.608;12.190;2022-10-30T18:02:11;13.52;;;6.93;;
13319;SDS011;59599;47.608;12.190;2022-10-30T18:04:42;20.15;;;7.38;;
13319;SDS011;59599;47.608;12.190;2022-10-30T18:07:09;19.83;;;6.57;;
13319;SDS011;59599;47.608;12.190;2022-10-30T18:09:36;16.20;;;6.70;;
13319;SDS011;59599;47.608;12.190;2022-10-30T18:12:03;17.75;;;7.38;;
13319;SDS011;59599;47.608;12.190;2022-10-30T18:14:29;15.35;;;7.40;;
13319;SDS011;59599;47.608;12.190;2022-10-30T18:16:55;15.15;;;6.97;;
13319;SDS011;59599;47.608;12.190;2022-10-30T18:19:20;16.15;;;9.27;;
13319;SDS011;59599;47.608;12.190;2022-10-30T18:21:46;17.77;;;9.20;;
13319;SDS011;59599;47.608;12.190;2022-10-30T18:24:15;19.98;;;8.40;;
13319;SDS011;59599;47.608;12.190;2022-10-30T18:26:41;23.33;;;8.45;;
13319;SDS011;59599;47.608;12.190;2022-10-30T18:29:08;13.55;;;8.80;;
13319;SDS011;59599;47.608;12.190;2022-10-30T18:31:34;18.70;;;9.00;;
13319;SDS011;59599;47.608;12.190;2022-10-30T18:34:00;23.60;;;9.50;;
13319;SDS011;59599;47.608;12.190;2022-10-30T18:36:26;19.50;;;9.73;;
13319;SDS011;59599;47.608;12.190;2022-10-30T18:38:52;22.10;;;10.95;;
13319;SDS011;59599;47.608;12.190;2022-10-30T18:41:21;18.95;;;11.40;;
13319;SDS011;59599;47.608;12.190;2022-10-30T18:43:53;19.02;;;8.93;;
13319;SDS011;59599;47.608;12.190;2022-10-30T18:46:19;21.73;;;9.17;;
13319;SDS011;59599;47.608;12.190;2022-10-30T18:48:44;16.43;;;8.30;;
13319;SDS011;59599;47.608;12.190;2022-10-30T18:51:28;24.70;;;8.50;;
13319;SDS011;59599;47.608;12.190;2022-10-30T18:53:54;19.23;;;8.60;;
13319;SDS011;59599;47.608;12.190;2022-10-30T18:56:25;17.70;;;7.63;;
13319;SDS011;59599;47.608;12.190;2022-10-30T18:58:52;13.50;;;7.60;;
13319;SDS011;59599;47.608;12.190;2022-10-30T19:01:18;19.50;;;7.72;;
13319;SDS011;59599;47.608;12.190;2022-10-30T19:03:44;15.35;;;8.20;;
13319;SDS011;59599;47.608;12.190;2022-10-30T19:06:20;13.35;;;6.97;;
13319;SDS011;59599;47.608;12.190;2022-10-30T19:08:47;14.37;;;6.93;;
13319;SDS011;59599;47.608;12.190;2022-10-30T19:11:14;12.57;;;6.65;;
13319;SDS011;59599;47.608;12.190;2022-10-30T19:13:41;12.85;;;6.28;;
13319;SDS011;59599;47.608;12.190;2022-10-30T19:16:11;18.93;;;7.10;;
13319;SDS011;59599;47.608;12.190;2022-10-30T19:18:39;18.00;;;6.43;;
13319;SDS011;59599;47.608;12.190;2022-10-30T19:21:06;12.57;;;6.32;;
13319;SDS011;59599;47.608;12.190;2022-10-30T19:23:34;15.07;;;6.78;;
13319;SDS011;59599;47.608;12.190;2022-10-30T19:25:59;11.73;;;5.60;;
13319;SDS011;59599;47.608;12.190;2022-10-30T19:28:25;11.35;;;5.10;;
13319;SDS011;59599;47.608;12.190;2022-10-30T19:30:50;16.97;;;5.87;;
13319;SDS011;59599;47.608;12.190;2022-10-30T19:33:17;13.93;;;5.85;;
13319;SDS011;59599;47.608;12.190;2022-10-30T19:35:43;14.73;;;5.87;;
13319;SDS011;59599;47.608;12.190;2022-10-30T19:38:10;13.27;;;6.20;;
13319;SDS011;59599;47.608;12.190;2022-10-30T19:40:37;15.20;;;6.70;;
13319;SDS011;59599;47.608;12.190;2022-10-30T19:43:04;16.33;;;7.43;;
13319;SDS011;59599;47.608;12.190;2022-10-30T19:45:30;13.33;;;6.63;;
13319;SDS011;59599;47.608;12.190;2022-10-30T19:47:58;12.10;;;6.20;;
13319;SDS011;59599;47.608;12.190;2022-10-30T19:50:26;12.77;;;5.33;;
13319;SDS011;59599;47.608;12.190;2022-10-30T19:52:58;12.43;;;5.67;;
13319;SDS011;59599;47.608;12.190;2022-10-30T19:55:25;15.13;;;5.97;;
13319;SDS011;59599;47.608;12.190;2022-10-30T19:57:52;14.93;;;7.77;;
13319;SDS011;59599;47.608;12.190;2022-10-30T20:00:23;16.17;;;7.10;;
13319;SDS011;59599;47.608;12.190;2022-10-30T20:02:51;11.73;;;7.40;;
13319;SDS011;59599;47.608;12.190;2022-10-30T20:05:19;17.60;;;6.57;;
13319;SDS011;59599;47.608;12.190;2022-10-30T20:10:29;14.23;;;6.17;;
13319;SDS011;59599;47.608;12.190;2022-10-30T20:12:56;11.67;;;5.80;;
13319;SDS011;59599;47.608;12.190;2022-10-30T20:15:22;16.73;;;6.17;;
13319;SDS011;59599;47.608;12.190;2022-10-30T20:17:49;10.90;;;5.27;;
13319;SDS011;59599;47.608;12.190;2022-10-30T20:20:19;17.27;;;5.87;;
13319;SDS011;59599;47.608;12.190;2022-10-30T20:22:47;15.50;;;5.30;;
13319;SDS011;59599;47.608;12.190;2022-10-30T20:25:12;13.23;;;5.53;;
13319;SDS011;59599;47.608;12.190;2022-10-30T20:27:39;17.50;;;5.60;;
13319;SDS011;59599;47.608;12.190;2022-10-30T20:30:06;13.63;;;5.33;;
13319;SDS011;59599;47.608;12.190;2022-10-30T20:32:33;13.90;;;5.23;;
13319;SDS011;59599;47.608;12.190;2022-10-30T20:34:58;11.90;;;5.07;;
13319;SDS011;59599;47.608;12.190;2022-10-30T20:37:24;11.03;;;5.73;;
13319;SDS011;59599;47.608;12.190;2022-10-30T20:39:49;17.77;;;7.00;;
13319;SDS011;59599;47.608;12.190;2022-10-30T20:42:16;18.90;;;7.07;;
13319;SDS011;59599;47.608;12.190;2022-10-30T20:44:44;19.20;;;7.80;;
13319;SDS011;59599;47.608;12.190;2022-10-30T20:47:10;19.40;;;9.43;;
13319;SDS011;59599;47.608;12.190;2022-10-30T20:49:35;19.70;;;8.47;;
13319;SDS011;59599;47.608;12.190;2022-10-30T20:52:01;20.00;;;8.20;;
13319;SDS011;59599;47.608;12.190;2022-10-30T20:54:27;18.93;;;6.90;;
13319;SDS011;59599;47.608;12.190;2022-10-30T20:56:52;18.43;;;7.20;;
13319;SDS011;59599;47.608;12.190;2022-10-30T20:59:18;16.03;;;6.83;;
13319;SDS011;59599;47.608;12.190;2022-10-30T21:01:43;14.20;;;7.10;;
13319;SDS011;59599;47.608;12.190;2022-10-30T21:04:09;17.23;;;6.23;;
13319;SDS011;59599;47.608;12.190;2022-10-30T21:06:34;13.03;;;6.50;;
13319;SDS011;59599;47.608;12.190;2022-10-30T21:09:00;13.97;;;5.93;;
13319;SDS011;59599;47.608;12.190;2022-10-30T21:11:25;8.27;;;4.87;;
13319;SDS011;59599;47.608;12.190;2022-10-30T21:13:51;13.37;;;6.57;;
13319;SDS011;59599;47.608;12.190;2022-10-30T21:16:20;16.00;;;5.53;;
13319;SDS011;59599;47.608;12.190;2022-10-30T21:18:53;16.20;;;6.50;;
13319;SDS011;59599;47.608;12.190;2022-10-30T21:21:19;16.53;;;7.30;;
13319;SDS011;59599;47.608;12.190;2022-10-30T21:23:45;14.20;;;6.40;;
13319;SDS011;59599;47.608;12.190;2022-10-30T21:26:11;13.40;;;6.87;;
13319;SDS011;59599;47.608;12.190;2022-10-30T21:28:38;12.37;;;6.57;;
13319;SDS011;59599;47.608;12.190;2022-10-30T21:31:05;10.77;;;5.67;;
13319;SDS011;59599;47.608;12.190;2022-10-30T21:33:33;16.40;;;6.37;;
13319;SDS011;59599;47.608;12.190;2022-10-30T21:36:06;14.43;;;5.57;;
13319;SDS011;59599;47.608;12.190;2022-10-30T21:38:36;12.00;;;5.60;;
13319;SDS011;59599;47.608;12.190;2022-10-30T21:41:02;11.80;;;5.53;;
13319;SDS011;59599;47.608;12.190;2022-10-30T21:43:28;13.10;;;5.60;;